Pagrindinis puslapis
METAR-TAF:

METAR-TAF

Oro uostai :

Vardė, Norvegija

platuma: 70-21N, ilguma: 031-03E, Aukštis: 12 m

Dabartinis oras

Ataskaita buvo paskelbta 31 minutes, ne 09:20 UTC
Vėjas 11 kt iš Vakarų/Šiaurės Vakarų
Temperatūra -7°C
Drėgmė 79%
Slėgis 979 hPa
Matomumas 10 km arba daugiau
Mažai debesys ne aukštis 3000 ft

METAR: ENSS 090920Z 29011KT 9999 FEW030 M07/M10 Q0979 RMK WIND 500FT 32015KT

Laikas: 10:51 (09:51 UTC)


TAF: trūkstamas

Orai ataskaitas ir orų prognozės (METAR, TAF).

turimą stotys yra geltonos ir raudonos taškus žemėlapyje.

Perkelti pele per norėdami pamatyti stoties vardą.

Tada spustelėkite, norėdami matyti oro stebėjimo ir prognozės.

Norėdami pakeisti žemėlapį: spustelėkite ant žalios mygtukų su juodo kryžiaus žemyn,; žalią mygtuką su brūkšneliu, jei norite nutolinti; arba žalių rodyklių gretimoms žemėlapius.


METAR-TAF: